Fordland, Missouri
Current Conditions -  °F | °C
As of 8:52 PM on Monday 22 Dec 2014 (Local Time) from KSGF Reporting Station
Few Clouds Few Clouds  
Wind Chill: 40°   Ceiling: Unl
Heat Index: 45°   Visibility: 10mi
Dew Point: 41°   Wind: 10mph
Humidity: 86%   Direction: 280°W
Pressure: 29.59"   Gusts: NA
Location:  37.16°N, 92.94°W
Report Text: KSGF 230252Z 28009KT 10SM FEW013 FEW020 07/05 A2959 RMK AO2 SLP021 60006 T00720050 51012
Loading
Personal Weather Stations






























Interactive Weather Map New forecast layout! Learn more

10-Day Weather Forecast

Advertisements
Track Severe Weather on mobile